Time;durP1;ratioP1;P1;durP2;ratioP2;P2;SDS_P1;SDS_P2;PMS_P1;PMS_P2;Temp;Humidity;BMP_temperature;BMP_pressure;BME280_temperature;BME280_humidity;BME280_pressure;Samples;Min_cycle;Max_cycle;Signal;HPM_P1;HPM_P2
2022/05/03 00:02:40;;;;;;;0.10;0.10;;;;;;;11.95;77.08;98767.28;5050952;28;20033;-87
2022/05/03 00:05:53;;;;;;;0.73;0.73;;;;;;;11.90;78.01;98769.22;5052148;28;20025;-86
2022/05/03 00:08:27;;;;;;;0.50;0.50;;;;;;;11.96;78.63;98768.91;5051837;28;20033;-79
2022/05/03 00:11:27;;;;;;;0.73;0.73;;;;;;;11.96;78.74;98763.56;5051510;28;20480;-78
2022/05/03 00:14:06;;;;;;;0.10;0.10;;;;;;;11.92;78.99;98769.75;5051462;28;20461;-79
2022/05/03 00:16:37;;;;;;;0.20;0.20;;;;;;;11.91;79.24;98763.56;5051819;28;20408;-79
2022/05/03 00:19:07;;;;;;;0.00;0.00;;;;;;;11.90;79.54;98767.38;5051247;28;20032;-85
2022/05/03 00:21:37;;;;;;;0.00;0.00;;;;;;;11.89;79.64;98764.97;5052038;28;20462;-86
2022/05/03 00:24:04;;;;;;;0.30;0.30;;;;;;;11.82;80.27;98763.44;5051651;28;20029;-83
2022/05/03 00:26:30;;;;;;;0.30;0.30;;;;;;;11.78;80.43;98762.44;5051185;28;20525;-84
2022/05/03 00:28:56;;;;;;;0.00;0.00;;;;;;;11.82;80.26;98771.47;5049308;28;20037;-84
2022/05/03 00:31:24;;;;;;;0.13;0.13;;;;;;;11.82;80.45;98762.66;5049514;28;20040;-80
2022/05/03 00:33:51;;;;;;;0.00;0.00;;;;;;;11.78;80.18;98753.59;5046720;28;20029;-82
2022/05/03 00:36:16;;;;;;;0.20;0.20;;;;;;;11.76;81.02;98755.78;5051810;28;20029;-82
2022/05/03 00:38:42;;;;;;;0.50;0.50;;;;;;;11.81;80.61;98761.84;5051444;28;20043;-82
2022/05/03 00:41:10;;;;;;;0.03;0.03;;;;;;;11.73;80.66;98757.16;5051365;28;20028;-79
2022/05/03 00:43:45;;;;;;;1.98;1.25;;;;;;;11.74;82.12;98757.94;5051786;28;20482;-78
2022/05/03 00:46:25;;;;;;;0.10;0.10;;;;;;;11.73;81.57;98753.69;5052179;28;20033;-80
2022/05/03 00:49:03;;;;;;;0.00;0.00;;;;;;;11.76;81.78;98764.59;5051357;28;20037;-78
2022/05/03 00:51:41;;;;;;;0.00;0.00;;;;;;;11.69;82.09;98754.28;5051458;28;20045;-79
2022/05/03 00:54:25;;;;;;;0.65;0.65;;;;;;;11.74;81.51;98756.06;5050618;28;20037;-78
2022/05/03 00:57:04;;;;;;;0.10;0.10;;;;;;;11.71;80.85;98751.28;5051347;28;20052;-82
2022/05/03 01:00:07;;;;;;;0.00;0.00;;;;;;;11.74;81.09;98753.38;5051445;28;20060;-79
2022/05/03 01:02:35;;;;;;;0.00;0.00;;;;;;;11.76;81.06;98755.78;5051371;28;20053;-78
2022/05/03 01:05:10;;;;;;;0.00;0.00;;;;;;;11.74;81.02;98757.94;5052647;28;20033;-79
2022/05/03 01:07:42;;;;;;;0.00;0.00;;;;;;;11.73;81.39;98748.31;5051506;28;20029;-83
2022/05/03 01:10:20;;;;;;;0.00;0.00;;;;;;;11.64;80.97;98751.66;5050931;28;20159;-83
2022/05/03 01:12:51;;;;;;;0.00;0.00;;;;;;;11.60;81.26;98757.91;5050641;28;20480;-83
2022/05/03 01:15:23;;;;;;;0.00;0.00;;;;;;;11.59;82.10;98754.41;5051086;28;20087;-83
2022/05/03 01:18:18;;;;;;;0.77;0.57;;;;;;;11.52;81.10;98738.72;5051159;28;20029;-81
2022/05/03 01:21:04;;;;;;;0.00;0.00;;;;;;;11.50;81.90;98754.25;5043028;28;20484;-80
2022/05/03 01:24:27;;;;;;;0.10;0.10;;;;;;;11.41;81.72;98747.16;5050647;28;20025;-85
2022/05/03 01:30:14;;;;;;;0.00;0.00;;;;;;;11.34;82.71;98737.59;5069591;28;20125;-88
2022/05/03 01:32:44;;;;;;;0.13;0.13;;;;;;;11.31;82.18;98734.72;5053064;28;20056;-85
2022/05/03 01:35:13;;;;;;;0.15;0.15;;;;;;;11.29;83.25;98731.50;5050483;28;20029;-87
2022/05/03 01:51:31;;;;;;;0.05;0.05;;;;;;;11.09;84.24;98743.28;5042338;28;20055;-86
2022/05/03 01:54:15;;;;;;;0.73;0.73;;;;;;;11.02;85.28;98741.75;5039640;28;20065;-86
2022/05/03 01:57:05;;;;;;;0.00;0.00;;;;;;;11.05;85.57;98743.84;5015052;28;20029;-86
2022/05/03 02:00:08;;;;;;;0.00;0.00;;;;;;;11.02;85.56;98739.09;5046148;28;20041;-85
2022/05/03 02:03:45;;;;;;;0.00;0.00;;;;;;;11.08;85.98;98749.72;5050774;28;20075;-85
2022/05/03 02:06:19;;;;;;;0.75;0.75;;;;;;;11.09;85.80;98744.06;5049583;28;20053;-84
2022/05/03 02:08:54;;;;;;;0.45;0.20;;;;;;;11.11;85.59;98741.91;5049667;28;20464;-79
2022/05/03 02:12:01;;;;;;;0.10;0.10;;;;;;;11.12;86.03;98740.03;5050894;28;20591;-78
2022/05/03 02:14:45;;;;;;;0.08;0.08;;;;;;;11.10;86.24;98731.50;5050963;28;20029;-77
2022/05/03 02:17:31;;;;;;;0.00;0.00;;;;;;;11.05;86.73;98727.00;5050185;28;20033;-77
2022/05/03 02:20:42;;;;;;;0.00;0.00;;;;;;;11.12;86.43;98740.84;5049775;28;20078;-77
2022/05/03 02:23:52;;;;;;;0.00;0.00;;;;;;;11.04;87.01;98731.56;5042914;28;20037;-82
2022/05/03 02:26:20;;;;;;;0.00;0.00;;;;;;;11.10;86.60;98737.66;5038882;28;20032;-78
2022/05/03 02:28:53;;;;;;;0.00;0.00;;;;;;;11.14;87.08;98744.00;5048894;28;20047;-79
2022/05/03 02:31:27;;;;;;;0.00;0.00;;;;;;;11.18;87.19;98738.88;5044684;28;20025;-80
2022/05/03 02:34:07;;;;;;;0.00;0.00;;;;;;;11.18;87.51;98742.38;5044334;28;20060;-78
2022/05/03 02:36:41;;;;;;;0.00;0.00;;;;;;;11.20;87.05;98736.72;5049674;28;20029;-78
2022/05/03 02:39:07;;;;;;;0.00;0.00;;;;;;;11.26;84.10;98740.91;5049282;28;20047;-79
2022/05/03 02:41:38;;;;;;;0.00;0.00;;;;;;;11.30;84.78;98750.00;5049604;28;20037;-83
2022/05/03 02:44:04;;;;;;;0.00;0.00;;;;;;;11.28;84.07;98749.47;5045562;28;20385;-85
2022/05/03 02:46:38;;;;;;;0.00;0.00;;;;;;;11.28;84.40;98741.44;5048976;28;20025;-84
2022/05/03 02:49:12;;;;;;;0.00;0.00;;;;;;;11.35;84.48;98746.44;5049276;28;20553;-84
2022/05/03 02:51:51;;;;;;;0.00;0.00;;;;;;;11.40;84.41;98750.91;5044045;28;20462;-84
2022/05/03 02:54:36;;;;;;;0.00;0.00;;;;;;;11.40;85.73;98745.56;5049186;28;20108;-83
2022/05/03 02:57:23;;;;;;;0.00;0.00;;;;;;;11.53;85.40;98752.88;5049269;28;20094;-82
2022/05/03 03:03:09;;;;;;;0.00;0.00;;;;;;;11.68;84.69;98747.31;5050345;28;20492;-83
2022/05/03 03:05:41;;;;;;;0.00;0.00;;;;;;;11.91;84.46;98752.84;5030952;28;20037;-80
2022/05/03 03:08:10;;;;;;;0.00;0.00;;;;;;;11.93;83.57;98749.91;5049170;28;20400;-81
2022/05/03 03:10:51;;;;;;;0.00;0.00;;;;;;;11.80;84.58;98756.78;5048131;28;20037;-81
2022/05/03 03:13:48;;;;;;;0.00;0.00;;;;;;;11.84;84.26;98763.97;5049393;28;20041;-84
2022/05/03 03:16:14;;;;;;;0.22;0.22;;;;;;;11.92;83.46;98759.81;5049022;28;20029;-86
2022/05/03 03:18:46;;;;;;;0.00;0.00;;;;;;;11.82;84.49;98770.69;5048992;28;20048;-87
2022/05/03 03:21:14;;;;;;;0.10;0.10;;;;;;;11.80;84.58;98768.31;5048584;28;20035;-87
2022/05/03 03:23:40;;;;;;;0.00;0.00;;;;;;;11.84;84.03;98772.00;5049182;28;20022;-87
2022/05/03 03:26:08;;;;;;;0.00;0.00;;;;;;;11.85;84.13;98775.47;5048992;28;20424;-88
2022/05/03 03:28:36;;;;;;;0.00;0.00;;;;;;;11.91;84.02;98776.19;5048738;28;20041;-81
2022/05/03 03:31:02;;;;;;;0.00;0.00;;;;;;;11.85;84.42;98775.47;5048535;28;20026;-82
2022/05/03 03:33:34;;;;;;;0.00;0.00;;;;;;;11.83;84.44;98773.06;5049040;28;20033;-83
2022/05/03 03:36:02;;;;;;;0.00;0.00;;;;;;;11.87;84.58;98773.28;5050223;28;20032;-81
2022/05/03 03:38:36;;;;;;;0.03;0.03;;;;;;;11.89;84.26;98771.13;5053514;28;20480;-88
2022/05/03 03:41:03;;;;;;;0.00;0.00;;;;;;;11.94;84.07;98787.13;5053043;28;20440;-90
2022/05/03 03:43:29;;;;;;;0.00;0.00;;;;;;;11.93;83.92;98790.88;5054150;28;20029;-95
2022/05/03 03:45:54;;;;;;;0.28;0.28;;;;;;;11.96;83.88;98792.19;5053833;28;20507;-92
2022/05/03 03:48:20;;;;;;;0.00;0.00;;;;;;;12.02;83.41;98791.03;5052590;28;20033;-89
2022/05/03 03:50:47;;;;;;;0.00;0.00;;;;;;;11.97;83.49;98778.53;5052671;28;20056;-94
2022/05/03 03:53:15;;;;;;;0.00;0.00;;;;;;;11.97;83.06;98777.72;5052533;28;20028;-91
2022/05/03 03:55:42;;;;;;;0.00;0.00;;;;;;;11.79;84.18;98777.44;5049916;28;20080;-88
2022/05/03 03:58:08;;;;;;;0.08;0.08;;;;;;;11.78;84.11;98793.78;5052147;28;20039;-89
2022/05/03 04:00:34;;;;;;;0.10;0.10;;;;;;;11.80;84.57;98802.34;5052370;28;20070;-91
2022/05/03 04:03:01;;;;;;;0.00;0.00;;;;;;;11.76;84.88;98804.78;5052315;28;20503;-86
2022/05/03 04:05:28;;;;;;;0.00;0.00;;;;;;;11.78;84.53;98804.50;5051897;28;20040;-84
2022/05/03 04:07:54;;;;;;;0.00;0.00;;;;;;;11.76;84.56;98801.34;5052347;28;20036;-84
2022/05/03 04:10:20;;;;;;;0.00;0.00;;;;;;;11.77;84.48;98786.84;5052462;28;20036;-86
2022/05/03 04:12:46;;;;;;;0.00;0.00;;;;;;;11.74;84.76;98790.88;5052050;28;20033;-86
2022/05/03 04:15:12;;;;;;;0.95;0.52;;;;;;;11.75;84.99;98803.19;5050470;28;20032;-86
2022/05/03 04:17:37;;;;;;;0.00;0.00;;;;;;;11.75;84.84;98802.41;5051064;28;20112;-81
2022/05/03 04:20:03;;;;;;;0.00;0.00;;;;;;;11.75;84.96;98797.84;5050894;28;20036;-84
2022/05/03 04:22:34;;;;;;;0.08;0.08;;;;;;;11.76;85.33;98798.66;5050665;28;20086;-83
2022/05/03 04:25:00;;;;;;;0.00;0.00;;;;;;;11.77;84.85;98802.94;5049075;28;20048;-85
2022/05/03 04:27:34;;;;;;;0.10;0.10;;;;;;;11.81;84.62;98806.59;5059569;28;20226;-96
2022/05/03 04:30:04;;;;;;;0.00;0.00;;;;;;;11.84;84.29;98809.50;5062080;28;20489;-96
2022/05/03 04:32:38;;;;;;;0.00;0.00;;;;;;;11.88;83.80;98796.31;5054206;28;20032;-96
2022/05/03 04:35:08;;;;;;;0.00;0.00;;;;;;;11.86;83.58;98801.16;5037366;28;20649;-96
2022/05/03 04:37:39;;;;;;;0.38;0.38;;;;;;;11.85;84.28;98805.75;5037616;28;20111;-96
2022/05/03 04:40:11;;;;;;;0.00;0.00;;;;;;;11.88;83.57;98809.72;5054955;28;20036;-96
2022/05/03 04:42:41;;;;;;;0.00;0.00;;;;;;;11.91;82.83;98824.44;5054128;28;20487;-96
2022/05/03 04:45:10;;;;;;;0.20;0.20;;;;;;;11.92;82.81;98823.34;5053718;28;20029;-96
2022/05/03 04:47:40;;;;;;;0.00;0.00;;;;;;;11.95;82.63;98828.09;5053246;28;20462;-96
2022/05/03 04:50:11;;;;;;;0.20;0.20;;;;;;;11.95;83.03;98828.09;5036860;28;20056;-96
2022/05/03 04:52:41;;;;;;;0.00;0.00;;;;;;;11.95;82.34;98828.91;5054820;28;20477;-96
2022/05/03 04:55:10;;;;;;;0.00;0.00;;;;;;;11.96;82.11;98832.38;5053866;28;20029;-96
2022/05/03 04:57:40;;;;;;;0.00;0.00;;;;;;;11.95;81.86;98836.16;5053796;28;20051;-96
2022/05/03 05:00:09;;;;;;;0.00;0.00;;;;;;;11.93;82.24;98827.63;5055151;28;20037;-96
2022/05/03 05:02:39;;;;;;;0.00;0.00;;;;;;;11.96;82.51;98829.69;5054640;28;20021;-96
2022/05/03 05:05:10;;;;;;;0.00;0.00;;;;;;;11.95;82.53;98830.78;5058992;28;20033;-96
2022/05/03 05:07:38;;;;;;;0.00;0.00;;;;;;;11.95;83.16;98830.78;5057675;28;20092;-96
2022/05/03 05:10:23;;;;;;;0.00;0.00;;;;;;;12.00;82.80;98828.09;5056367;28;20025;-96
2022/05/03 05:12:53;;;;;;;0.00;0.00;;;;;;;11.96;82.19;98833.22;5054357;28;20025;-96
2022/05/03 05:15:25;;;;;;;0.00;0.00;;;;;;;11.95;80.99;98836.16;5053154;28;20025;-96
2022/05/03 05:17:57;;;;;;;0.00;0.00;;;;;;;11.89;81.12;98834.63;5053094;28;20043;-96
2022/05/03 05:20:48;;;;;;;0.00;0.00;;;;;;;11.90;81.46;98839.72;5053139;28;20033;-96
2022/05/03 05:23:19;;;;;;;0.20;0.20;;;;;;;11.89;80.69;98848.84;5044284;28;20072;-96
2022/05/03 05:25:52;;;;;;;0.00;0.00;;;;;;;11.84;80.67;98840.88;5037673;28;20115;-96
2022/05/03 05:28:22;;;;;;;0.00;0.00;;;;;;;11.85;80.15;98839.75;5052863;28;20113;-96
2022/05/03 05:31:01;;;;;;;0.00;0.00;;;;;;;11.79;80.96;98844.41;5052918;28;20029;-96
2022/05/03 05:33:33;;;;;;;0.00;0.00;;;;;;;11.78;81.50;98833.97;5036565;28;20470;-96
2022/05/03 05:36:03;;;;;;;0.03;0.03;;;;;;;11.77;81.50;98832.41;5052614;28;20416;-96
2022/05/03 05:38:34;;;;;;;0.00;0.00;;;;;;;11.74;81.47;98835.63;5053307;28;20029;-96
2022/05/03 05:41:14;;;;;;;0.00;0.00;;;;;;;11.78;81.82;98850.03;5053527;28;20082;-96
2022/05/03 05:43:46;;;;;;;0.00;0.00;;;;;;;11.77;81.91;98853.84;5053537;28;20049;-96
2022/05/03 05:46:23;;;;;;;0.00;0.00;;;;;;;11.77;81.72;98854.63;5036111;28;20045;-96
2022/05/03 05:48:54;;;;;;;0.00;0.00;;;;;;;11.69;81.27;98865.97;5052814;28;20028;-96
2022/05/03 05:51:29;;;;;;;0.00;0.00;;;;;;;11.71;81.57;98866.47;5053137;28;20405;-96
2022/05/03 05:54:04;;;;;;;0.00;0.00;;;;;;;11.72;81.10;98864.59;5054671;28;20064;-96
2022/05/03 05:56:32;;;;;;;0.00;0.00;;;;;;;11.77;81.22;98865.34;5053005;28;20024;-96
2022/05/03 05:59:05;;;;;;;0.00;0.00;;;;;;;11.78;81.25;98861.56;5051725;28;20474;-96
2022/05/03 06:01:46;;;;;;;0.05;0.05;;;;;;;11.75;80.80;98867.50;5054876;28;20420;-95
2022/05/03 06:04:18;;;;;;;0.00;0.00;;;;;;;11.73;81.81;98869.69;5052805;28;20032;-96
2022/05/03 06:06:49;;;;;;;0.00;0.00;;;;;;;11.71;81.99;98865.69;5053927;28;20052;-96
2022/05/03 06:09:19;;;;;;;0.00;0.00;;;;;;;11.68;82.07;98870.53;5055636;28;20089;-96
2022/05/03 06:11:54;;;;;;;0.00;0.00;;;;;;;11.67;81.53;98871.63;5054099;28;20412;-96
2022/05/03 06:14:26;;;;;;;0.00;0.00;;;;;;;11.68;81.87;98885.78;5053748;28;20025;-96
2022/05/03 06:17:15;;;;;;;0.35;0.35;;;;;;;11.64;81.77;98882.88;5037369;28;20056;-96
2022/05/03 06:19:53;;;;;;;;;;;;;;;11.67;80.98;98878.88;5051725;28;20036;-96
2022/05/03 06:22:28;;;;;;;0.00;0.00;;;;;;;11.67;81.55;98886.91;5052143;28;20360;-96
2022/05/03 06:25:23;;;;;;;0.00;0.00;;;;;;;11.67;81.17;98884.22;5052449;28;20040;-96
2022/05/03 06:28:18;;;;;;;0.00;0.00;;;;;;;11.61;81.48;98883.47;5053397;28;20391;-96
2022/05/03 06:30:54;;;;;;;0.00;0.00;;;;;;;11.57;81.06;98882.47;5054824;28;20082;-96
2022/05/03 06:34:05;;;;;;;0.00;0.00;;;;;;;11.55;80.57;98879.28;5052416;28;20031;-96
2022/05/03 06:36:38;;;;;;;0.17;0.17;;;;;;;11.57;80.86;98868.25;5052858;28;20035;-96
2022/05/03 06:39:08;;;;;;;0.00;0.00;;;;;;;11.57;80.44;98874.44;5051839;28;20029;-96
2022/05/03 06:42:20;;;;;;;0.00;0.00;;;;;;;11.54;81.23;98873.09;5051987;28;20035;-96
2022/05/03 06:45:10;;;;;;;0.00;0.00;;;;;;;11.54;80.98;98875.78;5052600;28;20036;-96
2022/05/03 06:48:06;;;;;;;0.00;0.00;;;;;;;11.51;80.35;98870.19;5051978;28;20032;-96
2022/05/03 06:50:49;;;;;;;0.00;0.00;;;;;;;11.60;80.72;98878.41;5051448;28;20052;-96
2022/05/03 06:53:41;;;;;;;0.00;0.00;;;;;;;11.53;79.47;98862.69;5057900;28;20032;-96
2022/05/03 06:56:11;;;;;;;0.00;0.00;;;;;;;11.60;80.33;98860.47;5051745;28;20104;-95
2022/05/03 06:58:50;;;;;;;0.50;0.50;;;;;;;11.61;80.32;98855.88;5054473;28;20028;-94
2022/05/03 07:01:22;;;;;;;0.00;0.00;;;;;;;11.62;80.74;98846.78;5053561;28;20429;-95
2022/05/03 07:03:55;;;;;;;0.00;0.00;;;;;;;11.65;80.42;98840.84;5054264;28;20120;-96
2022/05/03 07:06:26;;;;;;;0.00;0.00;;;;;;;11.69;80.11;98845.34;5055393;28;20404;-96
2022/05/03 07:08:58;;;;;;;0.00;0.00;;;;;;;11.73;79.65;98850.13;5035402;28;20040;-96
2022/05/03 07:11:31;;;;;;;0.00;0.00;;;;;;;11.75;80.66;98850.63;5034855;28;20488;-96
2022/05/03 07:14:04;;;;;;;0.00;0.00;;;;;;;11.76;80.66;98850.34;5051369;28;20047;-96
2022/05/03 07:16:37;;;;;;;0.00;0.00;;;;;;;11.74;79.83;98857.84;5053748;28;20108;-95
2022/05/03 07:24:55;;;;;;;0.00;0.00;;;;;;;11.64;79.90;98858.78;5052497;28;20087;-96
2022/05/03 07:27:28;;;;;;;0.00;0.00;;;;;;;11.60;79.51;98863.13;5051237;28;20108;-96
2022/05/03 07:29:59;;;;;;;0.00;0.00;;;;;;;11.64;79.92;98866.03;5051534;28;20029;-96
2022/05/03 07:32:59;;;;;;;0.00;0.00;;;;;;;11.61;79.80;98872.78;5056485;28;20045;-94
2022/05/03 07:39:02;;;;;;;0.00;0.00;;;;;;;11.56;79.37;98880.06;5054181;28;20102;-96
2022/05/03 07:41:56;;;;;;;0.00;0.00;;;;;;;11.57;79.95;98882.47;5051437;28;20036;-96
2022/05/03 07:44:31;;;;;;;0.00;0.00;;;;;;;11.61;81.48;98885.34;5051377;28;20036;-96
2022/05/03 07:47:39;;;;;;;0.00;0.00;;;;;;;11.57;80.90;98887.00;5052602;28;20092;-95
2022/05/03 07:50:58;;;;;;;0.00;0.00;;;;;;;11.56;80.24;98899.63;5057304;28;20057;-96
2022/05/03 07:54:21;;;;;;;0.00;0.00;;;;;;;11.54;79.83;98905.25;5056165;28;20061;-95
2022/05/03 07:57:33;;;;;;;0.10;0.10;;;;;;;11.49;80.08;98899.16;5041303;28;20462;-95
2022/05/03 08:00:27;;;;;;;0.00;0.00;;;;;;;11.47;80.17;98909.34;5050946;28;20032;-96
2022/05/03 08:04:05;;;;;;;0.00;0.00;;;;;;;11.41;80.39;98907.81;5051945;28;20090;-96
2022/05/03 08:07:32;;;;;;;0.00;0.00;;;;;;;11.37;81.00;98908.38;5055420;28;20044;-96
2022/05/03 08:10:59;;;;;;;0.30;0.30;;;;;;;11.41;80.29;98902.47;5052506;28;20499;-96
2022/05/03 08:14:11;;;;;;;0.00;0.00;;;;;;;11.34;80.90;98914.31;5051596;28;20047;-96
2022/05/03 08:17:39;;;;;;;0.00;0.00;;;;;;;11.25;80.62;98915.22;5053868;28;20048;-96
2022/05/03 08:21:18;;;;;;;0.00;0.00;;;;;;;11.17;82.02;98913.97;5056394;28;20411;-96
2022/05/03 08:24:07;;;;;;;0.22;0.22;;;;;;;11.09;82.07;98914.56;5049032;28;20037;-95
2022/05/03 08:27:40;;;;;;;0.00;0.00;;;;;;;11.04;82.93;98916.19;5057753;28;20488;-96
2022/05/03 08:30:52;;;;;;;0.00;0.00;;;;;;;11.15;82.94;98916.13;5058725;28;20032;-96
2022/05/03 08:34:07;;;;;;;0.00;0.00;;;;;;;11.14;82.59;98923.31;5054759;28;20423;-96
2022/05/03 08:46:35;;;;;;;0.00;0.00;;;;;;;11.26;81.92;98916.81;5059237;28;20071;-95
2022/05/03 08:50:07;;;;;;;3.20;0.52;;;;;;;11.30;82.58;98917.84;5060488;28;20135;-96
2022/05/03 08:53:28;;;;;;;0.28;0.28;;;;;;;11.25;83.23;98915.22;5060260;28;20083;-96
2022/05/03 08:56:19;;;;;;;0.00;0.00;;;;;;;11.20;82.19;98922.22;5062757;28;20416;-96
2022/05/03 08:59:32;;;;;;;0.00;0.00;;;;;;;11.14;80.93;98917.19;5060030;28;20036;-95
2022/05/03 09:02:53;;;;;;;0.00;0.00;;;;;;;11.14;82.77;98934.03;5058896;28;20086;-96
2022/05/03 09:05:50;;;;;;;0.00;0.00;;;;;;;11.18;82.96;98924.38;5061337;28;20028;-95
2022/05/03 09:08:23;;;;;;;0.00;0.00;;;;;;;11.13;83.01;98927.09;5040004;28;20033;-96
2022/05/03 09:11:02;;;;;;;0.00;0.00;;;;;;;11.21;83.53;98934.50;5057657;28;20021;-96
2022/05/03 09:13:33;;;;;;;0.00;0.00;;;;;;;11.22;83.98;98929.97;5058759;28;20025;-96
2022/05/03 09:16:11;;;;;;;0.00;0.00;;;;;;;11.27;84.57;98931.81;5057984;28;20385;-96
2022/05/03 09:19:20;;;;;;;0.00;0.00;;;;;;;11.32;83.25;98942.44;5058941;28;20421;-96
2022/05/03 09:25:15;;;;;;;0.00;0.00;;;;;;;11.28;84.09;98933.38;5059406;28;20039;-96
2022/05/03 09:27:50;;;;;;;0.20;0.20;;;;;;;11.33;83.49;98934.13;5056571;28;20036;-96
2022/05/03 09:31:11;;;;;;;0.00;0.00;;;;;;;11.43;84.59;98929.75;5057453;28;20072;-96
2022/05/03 09:34:01;;;;;;;0.10;0.10;;;;;;;11.43;84.33;98929.75;5058000;28;20052;-96
2022/05/03 09:37:14;;;;;;;0.00;0.00;;;;;;;11.49;84.73;98937.44;5057634;28;20377;-96
2022/05/03 09:39:48;;;;;;;1.08;0.98;;;;;;;11.58;84.41;98926.91;5056085;28;20464;-95
2022/05/03 09:42:17;;;;;;;0.10;0.10;;;;;;;11.65;84.50;98922.00;5052332;28;20570;-94
2022/05/03 09:44:57;;;;;;;0.00;0.00;;;;;;;11.78;84.10;98920.50;5052280;28;20021;-94
2022/05/03 09:47:35;;;;;;;0.43;0.43;;;;;;;11.89;83.97;98918.50;5051671;28;20408;-95
2022/05/03 09:50:02;;;;;;;0.35;0.35;;;;;;;11.98;83.87;98918.69;5051806;28;20408;-94
2022/05/03 09:52:36;;;;;;;0.00;0.00;;;;;;;12.14;83.12;98921.97;5051786;28;20571;-94
2022/05/03 09:55:07;;;;;;;0.00;0.00;;;;;;;12.17;80.99;98919.50;5051867;28;20082;-95
2022/05/03 09:57:39;;;;;;;0.22;0.22;;;;;;;12.26;81.07;98921.53;5052020;28;20029;-95
2022/05/03 10:00:12;;;;;;;0.20;0.20;;;;;;;12.27;80.18;98913.19;5052010;28;20476;-94
2022/05/03 10:02:42;;;;;;;0.00;0.00;;;;;;;12.31;80.42;98916.88;5051791;28;20032;-94
2022/05/03 10:05:13;;;;;;;0.20;0.20;;;;;;;12.36;80.33;98929.41;5052294;28;20432;-94
2022/05/03 10:07:46;;;;;;;0.10;0.10;;;;;;;12.35;80.65;98922.47;5051884;28;20040;-95
2022/05/03 10:10:16;;;;;;;0.00;0.00;;;;;;;12.44;80.40;98930.66;5052331;28;20522;-96
2022/05/03 10:12:49;;;;;;;0.00;0.00;;;;;;;12.46;81.65;98923.09;5052082;28;20029;-95
2022/05/03 10:21:03;;;;;;;0.10;0.10;;;;;;;12.55;80.40;98925.94;5053135;28;20044;-95
2022/05/03 10:23:35;;;;;;;0.10;0.10;;;;;;;12.53;79.16;98933.50;5051945;28;20144;-94
2022/05/03 10:26:11;;;;;;;0.00;0.00;;;;;;;12.46;79.30;98929.28;5052794;28;20082;-94
2022/05/03 10:29:09;;;;;;;0.00;0.00;;;;;;;12.36;79.66;98929.41;5051328;28;20055;-95
2022/05/03 10:32:16;;;;;;;0.15;0.15;;;;;;;12.27;80.08;98934.66;5051985;28;20025;-94
2022/05/03 10:34:59;;;;;;;0.00;0.00;;;;;;;12.27;80.07;98934.66;5048817;28;20047;-94
2022/05/03 10:37:33;;;;;;;0.00;0.00;;;;;;;12.26;80.59;98932.25;5050887;28;20434;-95
2022/05/03 10:40:07;;;;;;;0.00;0.00;;;;;;;12.31;80.40;98926.81;5051459;28;20128;-94
2022/05/03 10:42:36;;;;;;;0.20;0.20;;;;;;;12.22;79.34;98934.72;5051386;28;20056;-94
2022/05/03 10:45:10;;;;;;;0.20;0.20;;;;;;;12.21;80.20;98922.41;5049827;28;20071;-94
2022/05/03 10:47:54;;;;;;;0.08;0.08;;;;;;;12.14;81.21;98933.47;5051404;28;20485;-94
2022/05/03 10:50:44;;;;;;;0.00;0.00;;;;;;;12.07;81.35;98929.56;5050791;28;20457;-94
2022/05/03 10:53:20;;;;;;;0.00;0.00;;;;;;;12.07;81.60;98932.25;5051114;28;20063;-92
2022/05/03 10:56:08;;;;;;;0.10;0.10;;;;;;;12.04;81.75;98932.84;5051263;28;20150;-92
2022/05/03 10:58:39;;;;;;;0.00;0.00;;;;;;;11.94;80.92;98941.78;5051001;28;20714;-92
2022/05/03 11:01:20;;;;;;;0.30;0.30;;;;;;;11.92;81.51;98941.25;5050622;28;20025;-96
2022/05/03 11:03:52;;;;;;;0.00;0.00;;;;;;;11.89;81.98;98936.44;5049981;28;20466;-93
2022/05/03 11:06:18;;;;;;;0.00;0.00;;;;;;;11.88;82.45;98929.50;5050993;28;20029;-94
2022/05/03 11:11:47;;;;;;;0.10;0.10;;;;;;;11.95;81.00;98941.47;5053426;28;20032;-92
2022/05/03 11:16:47;;;;;;;0.00;0.00;;;;;;;11.78;81.12;98946.50;5053629;28;20033;-90
2022/05/03 11:19:19;;;;;;;0.10;0.10;;;;;;;11.72;82.38;98942.28;5049397;28;20397;-93
2022/05/03 11:21:47;;;;;;;0.10;0.10;;;;;;;11.65;83.60;98934.59;5049486;28;20029;-91
2022/05/03 11:24:23;;;;;;;0.03;0.03;;;;;;;11.64;84.06;98933.78;5049306;28;20398;-91
2022/05/03 11:26:51;;;;;;;0.10;0.10;;;;;;;11.59;83.80;98928.50;5049524;28;20048;-91
2022/05/03 11:29:17;;;;;;;0.00;0.00;;;;;;;11.63;83.45;98928.72;5049360;28;20028;-91
2022/05/03 11:31:48;;;;;;;0.00;0.00;;;;;;;11.69;83.55;98928.38;5049541;28;20029;-92
2022/05/03 11:34:14;;;;;;;0.00;0.00;;;;;;;11.74;83.75;98924.84;5049491;28;20037;-91
2022/05/03 11:36:44;;;;;;;0.00;0.00;;;;;;;11.82;84.00;98918.06;5049486;28;20029;-92
2022/05/03 11:39:10;;;;;;;0.00;0.00;;;;;;;11.97;84.22;98911.72;5048964;28;20511;-91
2022/05/03 11:41:37;;;;;;;0.00;0.00;;;;;;;12.07;84.66;98913.47;5050078;28;20058;-92
2022/05/03 11:44:03;;;;;;;0.00;0.00;;;;;;;12.18;84.33;98914.91;5049335;28;20516;-91
2022/05/03 11:46:29;;;;;;;0.00;0.00;;;;;;;12.29;83.12;98912.91;5049289;28;20041;-92
2022/05/03 11:49:01;;;;;;;0.00;0.00;;;;;;;12.38;81.96;98907.66;5049293;28;20032;-92
2022/05/03 11:57:07;;;;;;;0.00;0.00;;;;;;;12.83;80.65;98916.09;5052294;28;20175;-89
2022/05/03 11:59:33;;;;;;;0.65;0.47;;;;;;;12.89;81.11;98909.56;5053168;28;20514;-92
2022/05/03 12:02:22;;;;;;;0.08;0.08;;;;;;;12.99;80.77;98908.59;5053273;28;20025;-91
2022/05/03 12:05:07;;;;;;;0.10;0.10;;;;;;;12.90;76.45;98907.66;5053291;28;20377;-93
2022/05/03 12:07:47;;;;;;;0.10;0.10;;;;;;;12.89;76.09;98911.44;5053795;28;20116;-89
2022/05/03 12:10:37;;;;;;;0.10;0.10;;;;;;;12.87;74.60;98917.09;5052869;28;20078;-94
2022/05/03 12:13:08;;;;;;;0.00;0.00;;;;;;;12.83;75.74;98905.38;5053067;28;20094;-94
2022/05/03 12:15:41;;;;;;;0.20;0.20;;;;;;;12.81;73.55;98902.97;5053037;28;20605;-93
2022/05/03 12:18:20;;;;;;;0.10;0.10;;;;;;;12.78;73.02;98908.13;5052568;28;20119;-94
2022/05/03 12:20:53;;;;;;;0.17;0.17;;;;;;;12.73;72.04;98905.53;5053012;28;20435;-92
2022/05/03 12:23:39;;;;;;;0.10;0.10;;;;;;;12.85;73.11;98907.75;5052700;28;20120;-93
2022/05/03 12:26:17;;;;;;;0.13;0.13;;;;;;;12.85;69.23;98913.91;5052877;28;20025;-94
2022/05/03 12:29:03;;;;;;;0.25;0.25;;;;;;;12.83;70.63;98897.31;5054080;28;20102;-94
2022/05/03 12:31:38;;;;;;;0.00;0.00;;;;;;;12.82;70.95;98903.78;5052310;28;20040;-94
2022/05/03 12:34:08;;;;;;;0.00;0.00;;;;;;;12.81;70.56;98904.88;5052307;28;20033;-90
2022/05/03 12:36:36;;;;;;;0.00;0.00;;;;;;;12.86;71.53;98904.78;5052435;28;20028;-91
2022/05/03 12:39:19;;;;;;;;;;;;;;;12.94;70.47;98906.00;5052889;28;20064;-92
2022/05/03 12:41:53;;;;;;;0.00;0.00;;;;;;;12.84;70.33;98906.16;5052671;28;19913;-89
2022/05/03 12:44:21;;;;;;;0.00;0.00;;;;;;;12.77;72.45;98907.34;5052163;28;20116;-91
2022/05/03 12:46:49;;;;;;;0.00;0.00;;;;;;;12.82;75.43;98909.94;5052189;28;20397;-90
2022/05/03 12:49:15;;;;;;;0.00;0.00;;;;;;;12.87;74.45;98910.94;5052002;28;20029;-91
2022/05/03 12:51:44;;;;;;;0.00;0.00;;;;;;;12.88;72.28;98913.34;5052162;28;20135;-91
2022/05/03 12:54:10;;;;;;;0.10;0.10;;;;;;;12.84;70.34;98908.84;5051806;28;20028;-90
2022/05/03 12:59:22;;;;;;;0.00;0.00;;;;;;;12.87;73.38;98911.72;5052867;28;20047;-89
2022/05/03 13:01:50;;;;;;;0.08;0.08;;;;;;;12.85;72.84;98895.13;5051942;28;20029;-90
2022/05/03 13:04:16;;;;;;;0.00;0.00;;;;;;;12.92;73.65;98902.81;5051767;28;20393;-89
2022/05/03 13:06:43;;;;;;;0.00;0.00;;;;;;;12.96;72.79;98901.94;5051823;28;20029;-89
2022/05/03 13:09:09;;;;;;;0.00;0.00;;;;;;;12.97;70.94;98911.56;5050802;28;20416;-89
2022/05/03 13:11:34;;;;;;;0.03;0.03;;;;;;;13.01;71.40;98902.91;5051706;28;20037;-90
2022/05/03 13:14:01;;;;;;;0.00;0.00;;;;;;;13.07;73.13;98913.28;5051663;28;20473;-90
2022/05/03 13:16:27;;;;;;;0.00;0.00;;;;;;;13.13;70.52;98903.22;5051267;28;20523;-90
2022/05/03 13:18:53;;;;;;;0.00;0.00;;;;;;;13.13;65.68;98908.59;5051612;28;20056;-91
2022/05/03 13:21:19;;;;;;;0.00;0.00;;;;;;;13.20;66.29;98905.53;5051334;28;20048;-90
2022/05/03 13:23:44;;;;;;;0.00;0.00;;;;;;;13.28;66.76;98911.03;5051571;28;20113;-90
2022/05/03 13:26:10;;;;;;;0.00;0.00;;;;;;;13.34;65.29;98917.09;5051249;28;20488;-88
2022/05/03 13:28:35;;;;;;;0.00;0.00;;;;;;;13.26;62.96;98907.03;5051613;28;20052;-89
2022/05/03 13:31:01;;;;;;;0.20;0.20;;;;;;;13.29;63.57;98909.94;5051534;28;20055;-92